Time;durP1;ratioP1;P1;durP2;ratioP2;P2;SDS_P1;SDS_P2;PMS_P1;PMS_P2;Temp;Humidity;BMP_temperature;BMP_pressure;BME280_temperature;BME280_humidity;BME280_pressure;Samples;Min_cycle;Max_cycle;Signal;HPM_P1;HPM_P2
2023/10/27 00:05:34;;;;;;;21.90;10.80;;;;;;;11.74;100.00;98267.42;682462;1262;138666;-82
2023/10/27 00:20:38;;;;;;;17.70;8.80;;;;;;;12.30;100.00;98263.56;682768;1261;139184;-82
2023/10/27 00:35:41;;;;;;;16.60;7.60;;;;;;;12.17;100.00;98258.64;682810;1263;138652;-83
2023/10/27 00:50:44;;;;;;;11.90;7.00;;;;;;;11.92;100.00;98268.56;682413;1263;139312;-82
2023/10/27 01:05:48;;;;;;;11.10;5.90;;;;;;;12.19;100.00;98271.68;682497;1262;138810;-81
2023/10/27 01:20:51;;;;;;;12.70;7.00;;;;;;;11.50;100.00;98267.28;682539;1261;139091;-82
2023/10/27 01:35:55;;;;;;;10.40;5.30;;;;;;;11.13;100.00;98258.92;682402;1260;139089;-82
2023/10/27 01:50:58;;;;;;;7.80;4.90;;;;;;;11.29;100.00;98248.86;682370;1275;138752;-81
2023/10/27 02:06:09;;;;;;;9.60;5.50;;;;;;;11.54;100.00;98244.73;682442;1262;139359;-82
2023/10/27 02:21:12;;;;;;;11.30;5.40;;;;;;;11.06;100.00;98242.70;682469;1261;138817;-82
2023/10/27 02:36:16;;;;;;;8.40;5.40;;;;;;;10.92;100.00;98249.64;682425;1260;141136;-82
2023/10/27 02:51:19;;;;;;;7.70;4.60;;;;;;;10.86;100.00;98243.24;682538;1262;138720;-81
2023/10/27 03:06:22;;;;;;;11.00;6.30;;;;;;;10.81;100.00;98247.67;682440;1258;139659;-82
2023/10/27 03:21:26;;;;;;;10.20;5.20;;;;;;;10.80;100.00;98243.95;682331;1263;139116;-82
2023/10/27 03:36:30;;;;;;;11.80;5.70;;;;;;;10.75;100.00;98235.02;682248;1262;139010;-82
2023/10/27 03:51:33;;;;;;;17.20;7.90;;;;;;;10.73;100.00;98227.83;682501;1263;139068;-82
2023/10/27 04:06:37;;;;;;;13.60;6.10;;;;;;;10.75;100.00;98231.47;682397;1263;139051;-82
2023/10/27 04:21:41;;;;;;;13.50;7.50;;;;;;;10.80;100.00;98226.94;682293;1262;138734;-82
2023/10/27 04:36:44;;;;;;;10.40;6.50;;;;;;;10.77;100.00;98217.05;682269;1262;139325;-83
2023/10/27 04:51:48;;;;;;;15.00;9.30;;;;;;;10.78;100.00;98215.73;682441;1263;140080;-82
2023/10/27 05:06:51;;;;;;;18.70;9.50;;;;;;;11.09;100.00;98224.56;682358;1263;140196;-83
2023/10/27 05:21:54;;;;;;;20.80;13.50;;;;;;;11.12;100.00;98240.61;682561;1262;138955;-82
2023/10/27 05:36:58;;;;;;;17.10;9.30;;;;;;;11.11;100.00;98247.75;682515;1262;140018;-82
2023/10/27 05:52:03;;;;;;;15.30;8.40;;;;;;;11.15;100.00;98265.44;682585;1263;139488;-83
2023/10/27 06:07:07;;;;;;;22.60;12.90;;;;;;;11.11;100.00;98279.00;682260;1264;139279;-83
2023/10/27 06:22:10;;;;;;;16.00;9.00;;;;;;;11.13;100.00;98298.88;682482;1260;140753;-82
2023/10/27 06:37:15;;;;;;;38.10;16.20;;;;;;;10.85;100.00;98323.61;682197;1273;139435;-83
2023/10/27 06:52:18;;;;;;;37.40;20.30;;;;;;;10.70;100.00;98327.36;682420;1264;139475;-82
2023/10/27 07:07:22;;;;;;;73.80;33.90;;;;;;;10.85;100.00;98342.86;682161;1260;139223;-83
2023/10/27 07:22:31;;;;;;;30.00;17.20;;;;;;;10.87;100.00;98334.77;682415;1262;139602;-82
2023/10/27 07:37:34;;;;;;;26.50;16.70;;;;;;;11.00;100.00;98334.07;682148;1261;159218;-82
2023/10/27 07:52:38;;;;;;;37.90;18.20;;;;;;;11.22;100.00;98319.52;682619;1257;139757;-81
2023/10/27 08:07:41;;;;;;;26.60;13.40;;;;;;;11.38;100.00;98313.34;682420;1263;139129;-82
2023/10/27 08:22:45;;;;;;;30.90;15.10;;;;;;;11.50;100.00;98313.76;682128;1257;139344;-81
2023/10/27 08:37:49;;;;;;;40.60;20.80;;;;;;;11.72;100.00;98305.40;682392;1263;139747;-82
2023/10/27 08:52:53;;;;;;;29.80;14.00;;;;;;;11.76;100.00;98310.48;682525;1260;140507;-83
2023/10/27 09:07:56;;;;;;;63.40;25.60;;;;;;;11.86;100.00;98328.34;682877;1264;138801;-82
2023/10/27 09:23:00;;;;;;;30.60;16.90;;;;;;;11.94;100.00;98331.16;682722;1260;138766;-81
2023/10/27 09:38:04;;;;;;;35.60;20.10;;;;;;;12.03;100.00;98333.81;683273;1260;139163;-83
2023/10/27 09:53:09;;;;;;;21.90;11.00;;;;;;;11.96;100.00;98346.77;682956;1260;141248;-80
2023/10/27 10:08:12;;;;;;;19.60;10.40;;;;;;;11.90;100.00;98351.62;682531;1263;139780;-79
2023/10/27 10:23:16;;;;;;;20.80;8.70;;;;;;;11.97;100.00;98345.58;682744;1260;139047;-80
2023/10/27 10:38:20;;;;;;;12.40;6.80;;;;;;;11.94;100.00;98338.89;682600;1263;139200;-81
2023/10/27 10:53:26;;;;;;;33.70;13.40;;;;;;;12.07;100.00;98325.40;683049;1258;139659;-82
2023/10/27 11:08:31;;;;;;;52.50;21.50;;;;;;;12.12;100.00;98328.45;682922;1258;139373;-82
2023/10/27 11:23:38;;;;;;;23.80;13.70;;;;;;;12.12;100.00;98316.52;682820;1263;139303;-81
2023/10/27 11:38:42;;;;;;;18.50;9.90;;;;;;;11.91;100.00;98306.79;682378;1263;139824;-79
2023/10/27 11:53:45;;;;;;;23.40;10.10;;;;;;;11.65;100.00;98293.76;683012;1260;138638;-79
2023/10/27 12:08:49;;;;;;;14.50;7.90;;;;;;;12.12;100.00;98280.23;683052;1262;140805;-81
2023/10/27 12:23:53;;;;;;;14.20;7.20;;;;;;;12.04;100.00;98274.08;683179;1261;138889;-81
2023/10/27 12:38:56;;;;;;;70.00;26.70;;;;;;;12.04;100.00;98264.56;682645;1259;138966;-83
2023/10/27 12:53:59;;;;;;;24.50;11.50;;;;;;;11.54;100.00;98248.21;682935;1263;140032;-82
2023/10/27 13:09:03;;;;;;;10.40;5.90;;;;;;;11.18;100.00;98247.33;682789;1261;139756;-84
2023/10/27 13:24:07;;;;;;;28.60;13.70;;;;;;;11.18;100.00;98251.74;683063;1273;138768;-84
2023/10/27 13:39:10;;;;;;;101.50;46.40;;;;;;;11.25;100.00;98257.73;682697;1257;139141;-84
2023/10/27 13:54:14;;;;;;;54.20;23.40;;;;;;;11.36;100.00;98266.27;682929;1260;138878;-82
2023/10/27 14:09:19;;;;;;;18.60;9.10;;;;;;;11.32;100.00;98277.48;682819;1263;138734;-84
2023/10/27 14:24:25;;;;;;;23.00;10.80;;;;;;;11.23;100.00;98284.40;682727;1263;138704;-83
2023/10/27 14:39:28;;;;;;;155.20;82.70;;;;;;;10.92;100.00;98287.63;682736;1261;139327;-84
2023/10/27 14:54:32;;;;;;;94.60;48.20;;;;;;;10.53;100.00;98291.75;682772;1260;139443;-83
2023/10/27 15:09:35;;;;;;;94.40;33.20;;;;;;;9.99;100.00;98292.11;683457;1273;141059;-82
2023/10/27 15:24:39;;;;;;;196.80;89.40;;;;;;;9.62;100.00;98293.65;682667;1259;139293;-82
2023/10/27 15:39:42;;;;;;;161.80;60.20;;;;;;;9.26;100.00;98293.35;682293;1260;139560;-82
2023/10/27 15:54:46;;;;;;;169.00;67.80;;;;;;;9.01;100.00;98290.42;682169;1262;139113;-81
2023/10/27 16:09:50;;;;;;;222.50;88.90;;;;;;;8.99;100.00;98288.66;682291;1259;138889;-81
2023/10/27 16:25:00;;;;;;;343.80;147.10;;;;;;;8.74;100.00;98296.02;682581;1260;139272;-81
2023/10/27 16:40:07;;;;;;;474.90;190.80;;;;;;;8.65;100.00;98298.25;682377;1261;139651;-81
2023/10/27 16:55:23;;;;;;;107.50;44.10;;;;;;;8.45;100.00;98297.13;682110;1259;139455;-80
2023/10/27 17:10:27;;;;;;;110.70;41.50;;;;;;;8.46;100.00;98301.69;682159;1263;140330;-81
2023/10/27 17:25:30;;;;;;;159.60;59.80;;;;;;;8.25;100.00;98312.66;682329;1261;139387;-81
2023/10/27 17:40:35;;;;;;;80.60;34.30;;;;;;;8.39;100.00;98322.48;682475;1262;139353;-82
2023/10/27 17:55:40;;;;;;;80.00;32.70;;;;;;;8.50;100.00;98327.14;682578;1260;139689;-81
2023/10/27 18:10:44;;;;;;;34.60;16.50;;;;;;;8.68;100.00;98329.12;682480;1261;138888;-81
2023/10/27 18:25:49;;;;;;;36.10;18.40;;;;;;;8.77;100.00;98327.80;682636;1260;138555;-81
2023/10/27 18:40:54;;;;;;;37.50;19.10;;;;;;;8.64;100.00;98329.53;682454;1260;139370;-82
2023/10/27 18:56:21;;;;;;;90.20;38.30;;;;;;;8.59;100.00;98329.61;682435;1262;139345;-82
2023/10/27 19:11:42;;;;;;;42.00;20.20;;;;;;;8.39;100.00;98342.86;682347;1262;139130;-82
2023/10/27 19:26:47;;;;;;;23.50;12.00;;;;;;;8.26;100.00;98349.76;682447;1262;139615;-81
2023/10/27 19:41:50;;;;;;;33.60;14.10;;;;;;;8.14;100.00;98362.67;682445;1261;153012;-81
2023/10/27 20:03:40;;;;;;;21.90;10.00;;;;;;;8.12;100.00;98380.86;655616;1298;544956;-81
2023/10/27 20:18:43;;;;;;;84.20;31.80;;;;;;;8.01;100.00;98379.86;667268;1285;138336;-81
2023/10/27 20:33:47;;;;;;;53.70;24.10;;;;;;;7.87;100.00;98375.92;666116;1272;138724;-82
2023/10/27 20:48:51;;;;;;;33.90;16.80;;;;;;;7.82;100.00;98382.63;665627;1277;138944;-81
2023/10/27 21:03:55;;;;;;;43.90;20.00;;;;;;;7.92;100.00;98398.33;666188;1270;139210;-81
2023/10/27 21:18:59;;;;;;;46.80;25.90;;;;;;;8.03;100.00;98411.17;667388;1286;138871;-81
2023/10/27 21:34:03;;;;;;;27.40;13.90;;;;;;;8.07;100.00;98420.55;663955;1269;139266;-81
2023/10/27 21:49:08;;;;;;;33.50;18.80;;;;;;;7.98;100.00;98430.16;670369;1270;138610;-80
2023/10/27 22:04:11;;;;;;;24.70;13.80;;;;;;;7.88;100.00;98437.84;668908;1274;139165;-80
2023/10/27 22:19:23;;;;;;;25.50;13.40;;;;;;;7.75;100.00;98441.80;665148;1274;138781;-81
2023/10/27 22:34:26;;;;;;;28.20;15.90;;;;;;;7.57;100.00;98450.49;665904;1269;138888;-80
2023/10/27 22:49:30;;;;;;;24.90;14.10;;;;;;;7.43;100.00;98450.58;664629;1273;139599;-81
2023/10/27 23:04:33;;;;;;;24.40;14.20;;;;;;;7.26;100.00;98449.66;665181;1273;138858;-81
2023/10/27 23:19:36;;;;;;;21.70;11.70;;;;;;;7.20;100.00;98450.85;665624;1287;139133;-80
2023/10/27 23:34:40;;;;;;;23.10;13.60;;;;;;;7.19;100.00;98463.77;666024;1273;140164;-80
2023/10/27 23:49:43;;;;;;;18.90;10.00;;;;;;;7.19;100.00;98476.88;664042;1273;139062;-81
